createdAt,value
2018-07-31T00:01:13.455Z,72.40
2018-07-31T00:04:37.882Z,71.90
2018-07-31T00:08:02.281Z,72.80
2018-07-31T00:11:26.743Z,73.00
2018-07-31T00:14:51.159Z,73.60
2018-07-31T00:18:15.571Z,74.10
2018-07-31T00:21:40.117Z,74.20
2018-07-31T00:25:04.606Z,74.30
2018-07-31T00:28:29.079Z,74.60
2018-07-31T00:31:53.496Z,74.60
2018-07-31T00:35:17.909Z,74.00
2018-07-31T00:38:42.330Z,74.90
2018-07-31T00:42:06.806Z,74.90
2018-07-31T00:45:31.253Z,75.40
2018-07-31T00:48:55.666Z,75.40
2018-07-31T00:52:20.155Z,76.20
2018-07-31T00:55:44.686Z,75.90
2018-07-31T00:59:09.269Z,76.00
2018-07-31T01:02:33.910Z,76.40
2018-07-31T01:05:58.340Z,76.80
2018-07-31T01:09:22.986Z,76.90
2018-07-31T01:12:47.658Z,77.00
2018-07-31T01:16:12.171Z,76.80
2018-07-31T01:19:36.622Z,76.70
2018-07-31T01:23:01.163Z,77.20
2018-07-31T01:26:25.729Z,77.20
2018-07-31T01:29:50.353Z,78.00
2018-07-31T01:33:14.870Z,77.90
2018-07-31T01:36:39.441Z,78.00
2018-07-31T01:40:04.034Z,78.00
2018-07-31T01:43:28.578Z,78.20
2018-07-31T01:46:53.121Z,78.20
2018-07-31T01:50:18.101Z,78.80
2018-07-31T01:53:42.557Z,78.90
2018-07-31T01:57:06.981Z,79.30
2018-07-31T02:00:31.538Z,79.30
2018-07-31T02:03:56.124Z,79.40
2018-07-31T02:07:20.627Z,79.60
2018-07-31T02:10:47.951Z,79.80
2018-07-31T02:14:12.358Z,80.00
2018-07-31T02:17:36.792Z,80.50
2018-07-31T02:21:01.210Z,80.20
2018-07-31T02:24:25.652Z,80.20
2018-07-31T02:27:50.088Z,80.70
2018-07-31T02:31:14.591Z,80.60
2018-07-31T02:34:39.008Z,80.60
2018-07-31T02:38:03.505Z,81.30
2018-07-31T02:41:27.934Z,81.40
2018-07-31T02:44:52.592Z,81.90
2018-07-31T02:48:17.011Z,81.90
2018-07-31T02:51:41.456Z,82.10
2018-07-31T02:55:06.861Z,82.50
2018-07-31T02:58:31.293Z,83.10
2018-07-31T03:01:55.739Z,83.60
2018-07-31T03:05:20.149Z,84.10
2018-07-31T03:08:44.589Z,84.60
2018-07-31T03:12:09.031Z,85.10
2018-07-31T03:15:33.477Z,84.70
2018-07-31T03:18:57.906Z,85.00
2018-07-31T03:22:22.342Z,85.10
2018-07-31T03:25:46.875Z,85.40
2018-07-31T03:29:11.416Z,85.60
2018-07-31T03:32:36.086Z,85.70
2018-07-31T03:36:00.575Z,86.00
2018-07-31T03:39:25.048Z,86.00
2018-07-31T03:42:49.513Z,86.10
2018-07-31T03:46:14.096Z,86.70
2018-07-31T03:49:38.573Z,86.50
2018-07-31T03:53:03.189Z,86.70
2018-07-31T03:56:27.743Z,87.00
2018-07-31T03:59:52.339Z,86.90
2018-07-31T04:03:16.855Z,87.00
2018-07-31T04:06:41.389Z,86.90
2018-07-31T04:10:06.144Z,87.30
2018-07-31T04:13:30.655Z,87.00
2018-07-31T04:16:55.231Z,87.20
2018-07-31T04:20:19.743Z,87.40
2018-07-31T04:23:44.302Z,87.40
2018-07-31T04:27:08.835Z,87.50
2018-07-31T04:30:33.279Z,87.10
2018-07-31T04:33:57.795Z,86.80
2018-07-31T04:37:22.444Z,86.90
2018-07-31T04:40:46.934Z,86.80
2018-07-31T04:44:11.425Z,86.90
2018-07-31T04:47:36.171Z,86.70
2018-07-31T04:51:00.678Z,86.90
2018-07-31T04:54:25.184Z,87.60
2018-07-31T04:57:49.739Z,87.10
2018-07-31T05:01:14.297Z,87.00
2018-07-31T05:04:38.775Z,86.70
2018-07-31T05:08:03.240Z,86.80
2018-07-31T05:11:27.717Z,86.60
2018-07-31T05:14:52.236Z,86.50
2018-07-31T05:18:17.487Z,86.50
2018-07-31T05:21:41.953Z,86.30
2018-07-31T05:25:06.834Z,86.30
2018-07-31T05:28:31.343Z,85.90
2018-07-31T05:31:55.856Z,85.70
2018-07-31T05:35:20.393Z,85.30
2018-07-31T05:38:44.983Z,82.80
2018-07-31T05:42:09.449Z,83.70
2018-07-31T05:45:34.007Z,82.40
2018-07-31T05:48:58.572Z,81.60
2018-07-31T05:52:23.850Z,81.30
2018-07-31T05:55:48.396Z,80.80
2018-07-31T05:59:12.941Z,79.80
2018-07-31T06:02:37.480Z,80.50
2018-07-31T06:06:01.952Z,79.70
2018-07-31T06:09:26.578Z,78.30
2018-07-31T06:12:51.057Z,76.90
2018-07-31T06:16:15.571Z,77.00
2018-07-31T06:19:40.203Z,77.20
2018-07-31T06:23:04.680Z,77.60
2018-07-31T06:26:29.298Z,76.30
2018-07-31T06:29:53.835Z,75.10
2018-07-31T06:33:18.384Z,73.70
2018-07-31T06:36:42.944Z,73.30
2018-07-31T06:40:07.815Z,73.10
2018-07-31T06:43:32.373Z,73.40
2018-07-31T06:46:56.857Z,73.00
2018-07-31T06:50:21.379Z,73.30
2018-07-31T06:53:50.765Z,73.70
2018-07-31T06:57:15.191Z,73.20
2018-07-31T07:00:39.649Z,73.30
2018-07-31T07:04:04.111Z,73.10
2018-07-31T07:07:28.738Z,71.70
2018-07-31T07:10:53.188Z,70.80
2018-07-31T07:14:17.661Z,70.50
2018-07-31T07:17:42.181Z,69.90
2018-07-31T07:21:07.045Z,69.50
2018-07-31T07:24:31.540Z,69.50
2018-07-31T07:27:56.048Z,69.50
2018-07-31T07:31:20.537Z,69.10
2018-07-31T07:34:45.069Z,68.80
2018-07-31T07:38:09.511Z,68.00
2018-07-31T07:41:34.062Z,68.00
2018-07-31T07:48:22.629Z,69.10
2018-07-31T07:51:47.145Z,69.50
2018-07-31T07:55:11.664Z,69.10
2018-07-31T07:58:36.132Z,69.30
2018-07-31T08:02:00.555Z,68.30
2018-07-31T08:05:24.989Z,67.70
2018-07-31T08:08:49.471Z,67.10
2018-07-31T08:12:13.888Z,66.10
2018-07-31T08:15:38.339Z,65.60
2018-07-31T08:19:02.785Z,64.50
2018-07-31T08:22:27.238Z,64.40
2018-07-31T08:26:07.360Z,63.40
2018-07-31T08:29:31.762Z,62.70
2018-07-31T08:32:56.197Z,62.30
2018-07-31T08:36:20.640Z,60.90
2018-07-31T08:39:45.033Z,59.80
2018-07-31T08:43:09.470Z,59.30
2018-07-31T08:46:34.016Z,58.90
2018-07-31T08:49:58.535Z,59.10
2018-07-31T08:53:23.105Z,58.60
2018-07-31T08:56:47.645Z,56.30
2018-07-31T09:00:12.198Z,56.40
2018-07-31T09:03:36.722Z,56.00
2018-07-31T09:07:01.207Z,54.00
2018-07-31T09:10:25.693Z,53.10
2018-07-31T09:13:50.191Z,52.00
2018-07-31T09:17:14.674Z,51.70
2018-07-31T09:20:39.282Z,51.90
2018-07-31T09:24:03.895Z,52.10
2018-07-31T09:27:28.578Z,50.90
2018-07-31T09:30:58.242Z,51.70
2018-07-31T09:34:22.698Z,50.40
2018-07-31T09:37:47.142Z,50.30
2018-07-31T09:41:11.568Z,49.70
2018-07-31T09:44:36.002Z,49.30
2018-07-31T09:48:00.499Z,48.50
2018-07-31T09:51:24.923Z,48.20
2018-07-31T09:54:49.440Z,48.00
2018-07-31T09:58:13.858Z,46.70
2018-07-31T10:01:38.278Z,47.30
2018-07-31T10:05:02.773Z,46.20
2018-07-31T10:08:27.161Z,45.90
2018-07-31T10:11:51.594Z,44.40
2018-07-31T10:15:16.032Z,44.50
2018-07-31T10:18:40.460Z,45.00
2018-07-31T10:22:04.863Z,44.10
2018-07-31T10:25:29.289Z,43.70
2018-07-31T10:28:53.730Z,44.90
2018-07-31T10:32:18.140Z,46.10
2018-07-31T10:35:42.539Z,46.00
2018-07-31T10:39:09.062Z,46.00
2018-07-31T10:42:33.572Z,43.00
2018-07-31T10:45:58.201Z,42.90
2018-07-31T10:49:22.977Z,43.80
2018-07-31T10:52:47.517Z,45.40
2018-07-31T10:56:12.255Z,43.90
2018-07-31T10:59:36.917Z,42.80
2018-07-31T11:03:01.509Z,43.20
2018-07-31T11:06:25.957Z,42.30
2018-07-31T11:09:50.478Z,39.60
2018-07-31T11:13:14.986Z,38.90
2018-07-31T11:16:39.519Z,39.00
2018-07-31T11:20:04.077Z,37.70
2018-07-31T11:23:28.602Z,38.30
2018-07-31T11:26:53.161Z,39.70
2018-07-31T11:30:17.622Z,40.10
2018-07-31T11:33:42.070Z,40.00
2018-07-31T11:37:06.530Z,39.60
2018-07-31T11:40:31.007Z,39.10
2018-07-31T11:43:55.450Z,40.30
2018-07-31T11:47:19.911Z,40.90
2018-07-31T11:50:44.341Z,41.30
2018-07-31T11:54:08.786Z,40.00
2018-07-31T11:57:33.220Z,40.20
2018-07-31T12:04:21.844Z,40.30
2018-07-31T12:07:46.254Z,38.60
2018-07-31T12:11:10.830Z,37.90
2018-07-31T12:14:35.292Z,37.90
2018-07-31T12:17:59.731Z,38.20
2018-07-31T12:21:24.179Z,38.80
2018-07-31T12:24:48.824Z,38.60
2018-07-31T12:28:13.260Z,37.80
2018-07-31T12:31:37.699Z,37.70
2018-07-31T12:35:02.100Z,38.00
2018-07-31T12:38:26.651Z,37.30
2018-07-31T12:41:51.102Z,35.20
2018-07-31T12:45:15.547Z,34.50
2018-07-31T12:48:40.157Z,34.90
2018-07-31T12:52:04.798Z,33.40
2018-07-31T12:55:29.375Z,31.40
2018-07-31T12:58:53.961Z,30.10
2018-07-31T13:02:18.550Z,30.40
2018-07-31T13:05:43.150Z,28.90
2018-07-31T13:09:08.958Z,27.80
2018-07-31T13:12:33.506Z,26.90
2018-07-31T13:15:57.952Z,26.90
2018-07-31T13:19:29.003Z,26.00
2018-07-31T13:22:53.751Z,26.30
2018-07-31T13:26:18.277Z,26.60
2018-07-31T13:29:42.779Z,26.40
2018-07-31T13:33:07.512Z,26.50
2018-07-31T13:36:32.044Z,26.80
2018-07-31T13:39:56.621Z,26.10
2018-07-31T13:43:21.101Z,25.60
2018-07-31T13:46:45.657Z,25.00
2018-07-31T13:50:10.447Z,24.60
2018-07-31T13:53:34.945Z,23.30
2018-07-31T13:56:59.596Z,23.10
2018-07-31T14:00:24.287Z,22.20
2018-07-31T14:03:48.705Z,21.90
2018-07-31T14:07:13.262Z,23.20
2018-07-31T14:10:37.882Z,21.70
2018-07-31T14:14:02.451Z,21.30
2018-07-31T14:17:26.902Z,21.30
2018-07-31T14:20:51.400Z,21.90
2018-07-31T14:24:15.958Z,21.00
2018-07-31T14:27:40.903Z,21.00
2018-07-31T14:31:05.424Z,20.60
2018-07-31T14:34:29.966Z,19.70
2018-07-31T14:37:54.444Z,19.20
2018-07-31T14:41:18.934Z,20.10
2018-07-31T14:44:43.422Z,19.60
2018-07-31T14:48:08.028Z,18.70
2018-07-31T14:51:32.572Z,18.30
2018-07-31T14:54:57.091Z,17.40
2018-07-31T14:58:21.614Z,17.30
2018-07-31T15:01:46.244Z,18.20
2018-07-31T15:05:10.804Z,17.90
2018-07-31T15:08:38.675Z,17.40
2018-07-31T15:12:03.102Z,16.90
2018-07-31T15:15:27.548Z,16.60
2018-07-31T15:18:52.228Z,16.40
2018-07-31T15:22:16.638Z,16.30
2018-07-31T15:25:41.084Z,16.30
2018-07-31T15:29:05.524Z,16.00
2018-07-31T15:32:29.964Z,15.20
2018-07-31T15:35:55.059Z,16.30
2018-07-31T15:39:19.474Z,16.80
2018-07-31T15:42:43.890Z,17.10
2018-07-31T15:46:08.381Z,16.10
2018-07-31T15:49:32.783Z,15.70
2018-07-31T15:52:57.522Z,15.20
2018-07-31T15:56:22.009Z,15.30
2018-07-31T15:59:46.441Z,14.90
2018-07-31T16:27:11.418Z,17.20
2018-07-31T16:30:35.851Z,18.60
2018-07-31T16:34:00.365Z,21.20
2018-07-31T16:37:24.741Z,22.30
2018-07-31T16:40:49.246Z,21.50
2018-07-31T16:44:13.733Z,21.70
2018-07-31T16:47:38.256Z,21.30
2018-07-31T16:51:02.712Z,22.00
2018-07-31T16:54:27.167Z,21.50
2018-07-31T16:57:51.782Z,22.10
2018-07-31T17:01:16.252Z,21.50
2018-07-31T17:04:40.663Z,21.50
2018-07-31T17:08:05.087Z,25.00
2018-07-31T17:11:30.039Z,26.00
2018-07-31T17:14:54.453Z,28.40
2018-07-31T17:18:18.882Z,29.40
2018-07-31T17:21:43.303Z,30.00
2018-07-31T17:25:07.825Z,32.00
2018-07-31T17:28:32.334Z,33.50
2018-07-31T17:31:56.892Z,33.20
2018-07-31T17:35:21.339Z,34.00
2018-07-31T17:38:45.763Z,33.90
2018-07-31T17:42:10.267Z,34.70
2018-07-31T17:45:34.834Z,36.30
2018-07-31T17:48:59.331Z,37.60
2018-07-31T17:52:23.888Z,37.30
2018-07-31T17:55:48.386Z,38.40
2018-07-31T17:59:12.861Z,38.80
2018-07-31T18:02:37.398Z,41.30
2018-07-31T18:06:02.251Z,40.70
2018-07-31T18:09:26.774Z,42.80
2018-07-31T18:12:51.258Z,42.60
2018-07-31T18:16:15.771Z,42.80
2018-07-31T18:19:40.355Z,45.40
2018-07-31T18:23:05.033Z,45.20
2018-07-31T18:26:29.519Z,45.80
2018-07-31T18:29:54.324Z,45.20
2018-07-31T18:33:18.816Z,47.00
2018-07-31T18:36:43.294Z,47.60
2018-07-31T18:40:08.289Z,46.90
2018-07-31T18:43:32.900Z,45.20
2018-07-31T18:46:57.387Z,47.90
2018-07-31T18:50:21.982Z,49.60
2018-07-31T18:53:46.483Z,49.60
2018-07-31T18:57:11.009Z,52.30
2018-07-31T19:00:35.505Z,52.70
2018-07-31T19:03:59.993Z,51.40
2018-07-31T19:07:25.123Z,51.90
2018-07-31T19:10:50.289Z,52.40
2018-07-31T19:14:15.495Z,50.70
2018-07-31T19:17:40.476Z,49.50
2018-07-31T19:21:05.497Z,52.30
2018-07-31T19:24:31.182Z,52.20
2018-07-31T19:27:55.692Z,53.50
2018-07-31T19:31:20.407Z,53.90
2018-07-31T19:34:45.413Z,54.30
2018-07-31T19:38:10.508Z,55.70
2018-07-31T19:41:35.515Z,55.30
2018-07-31T19:45:00.559Z,55.20
2018-07-31T19:48:25.523Z,54.10
2018-07-31T19:51:50.667Z,55.10
2018-07-31T19:55:15.851Z,56.60
2018-07-31T19:58:40.650Z,55.20
2018-07-31T20:02:05.201Z,53.40
2018-07-31T20:05:29.673Z,56.80
2018-07-31T20:08:54.172Z,54.30
2018-07-31T20:12:18.802Z,55.50
2018-07-31T20:15:43.345Z,55.20
2018-07-31T20:19:07.833Z,55.40
2018-07-31T20:22:33.176Z,54.70
2018-07-31T20:25:57.683Z,53.50
2018-07-31T20:29:22.409Z,53.60
2018-07-31T20:32:46.910Z,52.50
2018-07-31T20:36:11.450Z,53.10
2018-07-31T20:39:36.508Z,54.60
2018-07-31T20:43:00.927Z,53.90
2018-07-31T20:49:49.678Z,55.00
2018-07-31T20:53:14.539Z,54.50
2018-07-31T20:56:38.980Z,53.50
2018-07-31T21:00:03.490Z,53.60
2018-07-31T21:03:28.002Z,54.70
2018-07-31T21:10:16.681Z,54.00
2018-07-31T21:13:41.113Z,54.70
2018-07-31T21:17:05.547Z,54.10
2018-07-31T21:20:29.974Z,54.30
2018-07-31T21:23:54.364Z,53.90
2018-07-31T21:27:18.861Z,54.80
2018-07-31T21:30:43.308Z,54.50
2018-07-31T21:34:07.788Z,54.20
2018-07-31T21:37:38.005Z,54.50
2018-07-31T21:41:02.439Z,55.20
2018-07-31T21:44:26.966Z,55.00
2018-07-31T21:47:51.415Z,56.00
2018-07-31T21:51:16.314Z,55.60
2018-07-31T21:54:40.741Z,56.50
2018-07-31T21:58:05.425Z,56.20
2018-07-31T22:01:29.868Z,56.70
2018-07-31T22:04:54.600Z,56.20
2018-07-31T22:08:19.244Z,55.70
2018-07-31T22:11:43.788Z,56.80
2018-07-31T22:15:08.478Z,56.40
2018-07-31T22:18:32.989Z,57.40
2018-07-31T22:21:57.605Z,56.30
2018-07-31T22:25:22.128Z,56.80
2018-07-31T22:28:46.592Z,57.50
2018-07-31T22:32:11.152Z,55.60
2018-07-31T22:35:35.777Z,56.10
2018-07-31T22:39:01.061Z,56.30
2018-07-31T22:46:57.698Z,56.00
2018-07-31T22:50:22.569Z,56.20
2018-07-31T22:53:47.117Z,55.70
2018-07-31T22:57:11.575Z,56.30
2018-07-31T23:00:36.015Z,56.80
2018-07-31T23:04:00.525Z,56.40
2018-07-31T23:07:24.992Z,56.70
2018-07-31T23:10:49.412Z,57.10
2018-07-31T23:14:13.884Z,56.70
2018-07-31T23:17:38.248Z,56.90
2018-07-31T23:21:02.806Z,57.00
2018-07-31T23:24:27.276Z,57.20
2018-07-31T23:31:16.063Z,57.60
2018-07-31T23:34:40.476Z,57.70
2018-07-31T23:38:04.993Z,57.30
2018-07-31T23:41:29.466Z,57.90
2018-07-31T23:44:54.658Z,58.10
2018-07-31T23:48:19.095Z,58.30
2018-07-31T23:51:43.532Z,58.10
2018-07-31T23:55:08.019Z,57.70
2018-07-31T23:58:32.479Z,58.00
